createdAt,value
2022-10-27T00:00:59.283Z,74.38
2022-10-27T00:03:26.061Z,74.52
2022-10-27T00:05:55.072Z,74.41
2022-10-27T00:08:24.323Z,74.69
2022-10-27T00:10:58.483Z,75.17
2022-10-27T00:13:25.634Z,75.11
2022-10-27T00:15:59.469Z,74.77
2022-10-27T00:18:30.988Z,74.46
2022-10-27T00:20:59.755Z,74.39
2022-10-27T00:23:26.482Z,74.31
2022-10-27T00:26:01.038Z,73.97
2022-10-27T00:28:31.397Z,73.62
2022-10-27T00:31:06.259Z,73.71
2022-10-27T00:33:35.252Z,74.41
2022-10-27T00:36:12.275Z,74.61
2022-10-27T00:38:42.481Z,74.63
2022-10-27T00:41:24.373Z,74.83
2022-10-27T00:43:53.764Z,74.47
2022-10-27T00:46:20.256Z,74.51
2022-10-27T00:48:49.732Z,74.17
2022-10-27T00:51:19.739Z,74.30
2022-10-27T00:53:49.740Z,73.90
2022-10-27T00:56:19.355Z,74.35
2022-10-27T00:58:46.365Z,74.04
2022-10-27T01:01:15.768Z,73.92
2022-10-27T01:03:43.666Z,73.94
2022-10-27T01:06:15.357Z,73.62
2022-10-27T01:08:42.521Z,73.59
2022-10-27T01:11:14.364Z,73.54
2022-10-27T01:13:41.071Z,73.49
2022-10-27T01:16:28.780Z,73.36
2022-10-27T01:19:17.218Z,73.39
2022-10-27T01:24:58.672Z,73.25
2022-10-27T01:27:45.833Z,73.06
2022-10-27T01:30:18.436Z,72.96
2022-10-27T01:33:08.265Z,72.99
2022-10-27T01:35:50.074Z,73.22
2022-10-27T01:38:26.964Z,72.96
2022-10-27T01:40:57.632Z,73.16
2022-10-27T01:43:28.199Z,73.13
2022-10-27T01:45:56.126Z,72.86
2022-10-27T01:48:25.567Z,73.10
2022-10-27T01:51:07.290Z,72.97
2022-10-27T01:53:39.512Z,73.04
2022-10-27T01:56:06.129Z,72.95
2022-10-27T01:59:09.103Z,73.23
2022-10-27T02:01:44.951Z,73.14
2022-10-27T02:04:29.781Z,73.24
2022-10-27T02:07:12.520Z,73.12
2022-10-27T02:09:44.226Z,73.09
2022-10-27T02:12:21.673Z,73.06
2022-10-27T02:14:54.253Z,73.24
2022-10-27T02:17:25.820Z,73.29
2022-10-27T02:19:54.893Z,73.39
2022-10-27T02:22:27.102Z,73.48
2022-10-27T02:24:59.119Z,73.22
2022-10-27T02:27:33.594Z,73.40
2022-10-27T02:30:03.856Z,73.56
2022-10-27T02:32:33.326Z,73.55
2022-10-27T02:35:00.553Z,73.54
2022-10-27T02:37:37.673Z,73.78
2022-10-27T02:40:04.932Z,73.68
2022-10-27T02:42:31.652Z,73.97
2022-10-27T02:45:00.650Z,74.06
2022-10-27T02:47:27.348Z,74.32
2022-10-27T02:49:54.058Z,74.15
2022-10-27T02:52:23.365Z,73.93
2022-10-27T02:54:49.975Z,74.16
2022-10-27T02:57:17.899Z,73.81
2022-10-27T02:59:49.716Z,73.81
2022-10-27T03:02:23.655Z,73.68
2022-10-27T03:04:53.602Z,73.48
2022-10-27T03:07:20.615Z,73.11
2022-10-27T03:09:54.568Z,73.20
2022-10-27T03:12:21.264Z,73.36
2022-10-27T03:14:47.933Z,73.13
2022-10-27T03:17:17.057Z,73.01
2022-10-27T03:19:46.167Z,73.20
2022-10-27T03:22:12.939Z,72.78
2022-10-27T03:24:39.629Z,73.04
2022-10-27T03:27:06.301Z,72.38
2022-10-27T03:29:33.007Z,73.18
2022-10-27T03:32:02.245Z,72.77
2022-10-27T03:34:29.010Z,72.71
2022-10-27T03:36:55.733Z,72.69
2022-10-27T03:39:22.427Z,73.10
2022-10-27T03:41:49.264Z,73.05
2022-10-27T03:44:15.922Z,72.64
2022-10-27T03:46:47.464Z,72.38
2022-10-27T03:49:14.780Z,72.68
2022-10-27T03:51:46.492Z,72.57
2022-10-27T03:54:13.414Z,72.43
2022-10-27T03:56:42.439Z,72.75
2022-10-27T03:59:09.810Z,72.41
2022-10-27T04:01:37.414Z,72.43
2022-10-27T04:04:04.742Z,72.51
2022-10-27T04:06:34.930Z,72.44
2022-10-27T04:09:01.935Z,72.23
2022-10-27T04:11:28.916Z,72.11
2022-10-27T04:13:56.087Z,72.11
2022-10-27T04:16:23.084Z,72.21
2022-10-27T04:18:50.482Z,72.54
2022-10-27T04:21:17.685Z,72.18
2022-10-27T04:23:45.903Z,72.03
2022-10-27T04:26:13.009Z,72.03
2022-10-27T04:28:44.076Z,72.08
2022-10-27T04:31:18.556Z,72.13
2022-10-27T04:33:46.219Z,72.23
2022-10-27T04:36:17.297Z,72.03
2022-10-27T04:38:44.744Z,72.14
2022-10-27T04:41:11.600Z,72.14
2022-10-27T04:43:38.509Z,72.15
2022-10-27T04:46:10.547Z,71.91
2022-10-27T04:48:40.390Z,72.08
2022-10-27T04:51:11.693Z,71.83
2022-10-27T04:53:41.437Z,71.97
2022-10-27T04:56:11.336Z,71.97
2022-10-27T04:58:45.412Z,71.87
2022-10-27T05:01:15.704Z,71.99
2022-10-27T05:03:48.074Z,71.92
2022-10-27T05:06:21.628Z,71.91
2022-10-27T05:08:48.509Z,71.90
2022-10-27T05:11:18.063Z,71.79
2022-10-27T05:13:47.023Z,71.70
2022-10-27T05:16:15.828Z,71.96
2022-10-27T05:19:14.634Z,71.90
2022-10-27T05:21:41.384Z,71.73
2022-10-27T05:24:08.233Z,71.56
2022-10-27T05:26:37.869Z,71.87
2022-10-27T05:29:04.935Z,72.04
2022-10-27T05:31:31.710Z,71.62
2022-10-27T05:34:14.167Z,71.83
2022-10-27T05:36:43.764Z,71.27
2022-10-27T05:39:13.478Z,71.43
2022-10-27T05:41:40.281Z,71.47
2022-10-27T05:44:06.955Z,71.40
2022-10-27T05:46:36.065Z,71.74
2022-10-27T05:49:08.514Z,71.41
2022-10-27T05:51:37.577Z,71.47
2022-10-27T05:54:06.413Z,71.56
2022-10-27T05:56:35.391Z,71.45
2022-10-27T06:01:36.500Z,71.25
2022-10-27T06:04:03.492Z,70.99
2022-10-27T06:06:30.296Z,71.22
2022-10-27T06:08:59.211Z,71.11
2022-10-27T06:11:26.074Z,71.20
2022-10-27T06:13:58.484Z,71.19
2022-10-27T06:16:29.714Z,71.14
2022-10-27T06:18:57.080Z,70.86
2022-10-27T06:21:26.245Z,70.68
2022-10-27T06:23:52.998Z,70.58
2022-10-27T06:26:24.390Z,70.15
2022-10-27T06:28:53.740Z,70.40
2022-10-27T06:31:20.483Z,70.42
2022-10-27T06:33:47.573Z,70.66
2022-10-27T06:36:16.645Z,70.61
2022-10-27T06:38:44.487Z,70.43
2022-10-27T06:41:12.517Z,69.92
2022-10-27T06:43:41.357Z,69.95
2022-10-27T06:46:12.754Z,69.88
2022-10-27T06:48:39.457Z,69.50
2022-10-27T06:51:06.195Z,69.32
2022-10-27T06:53:38.194Z,69.34
2022-10-27T06:56:07.226Z,69.37
2022-10-27T06:58:39.444Z,69.20
2022-10-27T07:01:09.010Z,68.98
2022-10-27T07:03:38.172Z,69.01
2022-10-27T07:06:09.899Z,68.91
2022-10-27T07:08:38.737Z,68.88
2022-10-27T07:11:05.554Z,68.16
2022-10-27T07:13:37.446Z,68.67
2022-10-27T07:16:04.355Z,68.58
2022-10-27T07:18:37.608Z,67.84
2022-10-27T07:21:05.335Z,68.12
2022-10-27T07:23:32.240Z,68.00
2022-10-27T07:26:03.598Z,67.86
2022-10-27T07:28:32.920Z,67.59
2022-10-27T07:31:02.988Z,67.23
2022-10-27T07:33:29.771Z,67.32
2022-10-27T07:35:56.529Z,67.40
2022-10-27T07:38:23.293Z,66.98
2022-10-27T07:40:54.906Z,66.77
2022-10-27T07:43:24.129Z,67.72
2022-10-27T07:45:55.943Z,67.74
2022-10-27T07:48:25.009Z,67.37
2022-10-27T07:50:55.250Z,66.84
2022-10-27T07:53:22.007Z,66.96
2022-10-27T07:55:52.486Z,67.33
2022-10-27T07:58:19.283Z,66.65
2022-10-27T08:00:48.305Z,66.70
2022-10-27T08:03:26.369Z,66.67
2022-10-27T08:05:53.510Z,66.63
2022-10-27T08:08:23.515Z,66.30
2022-10-27T08:10:55.046Z,65.81
2022-10-27T08:13:24.012Z,65.94
2022-10-27T08:18:32.824Z,65.91
2022-10-27T08:20:59.644Z,65.66
2022-10-27T08:23:26.359Z,65.46
2022-10-27T08:25:53.216Z,65.96
2022-10-27T08:28:22.320Z,65.79
2022-10-27T08:30:52.534Z,66.37
2022-10-27T08:33:25.093Z,66.65
2022-10-27T08:35:52.146Z,66.54
2022-10-27T08:38:25.805Z,65.26
2022-10-27T08:41:24.142Z,65.51
2022-10-27T08:44:12.501Z,64.94
2022-10-27T08:46:47.574Z,65.69
2022-10-27T08:49:51.544Z,65.39
2022-10-27T08:52:34.134Z,66.42
2022-10-27T08:55:13.231Z,66.54
2022-10-27T08:57:59.757Z,66.44
2022-10-27T09:00:28.487Z,66.19
2022-10-27T09:03:06.385Z,65.32
2022-10-27T09:06:25.026Z,65.08
2022-10-27T09:09:07.356Z,64.44
2022-10-27T09:11:44.200Z,65.68
2022-10-27T09:14:32.920Z,65.29
2022-10-27T09:17:12.874Z,64.81
2022-10-27T09:19:52.334Z,64.55
2022-10-27T09:22:20.715Z,64.41
2022-10-27T09:25:00.442Z,63.73
2022-10-27T09:27:29.541Z,63.80
2022-10-27T09:30:03.622Z,64.21
2022-10-27T09:32:33.209Z,64.58
2022-10-27T09:35:02.279Z,64.06
2022-10-27T09:37:31.478Z,63.58
2022-10-27T09:40:00.833Z,63.83
2022-10-27T09:42:28.605Z,64.02
2022-10-27T09:44:58.060Z,64.12
2022-10-27T09:47:37.869Z,63.26
2022-10-27T09:50:07.578Z,63.47
2022-10-27T09:52:43.256Z,63.39
2022-10-27T09:55:12.249Z,63.55
2022-10-27T09:57:44.710Z,63.54
2022-10-27T10:00:17.458Z,62.93
2022-10-27T10:05:40.060Z,63.06
2022-10-27T10:08:27.676Z,62.31
2022-10-27T10:10:59.324Z,62.35
2022-10-27T10:13:26.498Z,61.92
2022-10-27T10:16:13.887Z,61.97
2022-10-27T10:18:41.903Z,62.00
2022-10-27T10:21:12.870Z,61.90
2022-10-27T10:23:49.124Z,61.51
2022-10-27T10:26:18.800Z,61.35
2022-10-27T10:28:46.867Z,61.43
2022-10-27T10:31:16.476Z,61.36
2022-10-27T10:33:46.701Z,61.48
2022-10-27T10:36:25.219Z,61.03
2022-10-27T10:39:00.629Z,60.79
2022-10-27T10:41:30.325Z,61.49
2022-10-27T10:44:26.869Z,60.56
2022-10-27T10:46:55.066Z,61.81
2022-10-27T10:49:42.829Z,61.56
2022-10-27T10:52:19.037Z,61.55
2022-10-27T10:54:46.139Z,61.88
2022-10-27T10:57:36.743Z,61.44
2022-10-27T11:00:05.476Z,61.12
2022-10-27T11:02:35.531Z,61.00
2022-10-27T11:05:20.266Z,60.71
2022-10-27T11:07:48.436Z,60.78
2022-10-27T11:10:25.141Z,60.52
2022-10-27T11:12:55.990Z,59.56
2022-10-27T11:15:29.239Z,60.53
2022-10-27T11:18:20.933Z,60.00
2022-10-27T11:20:54.185Z,60.61
2022-10-27T11:23:25.588Z,60.45
2022-10-27T11:25:53.290Z,60.35
2022-10-27T11:28:27.886Z,60.12
2022-10-27T11:31:18.635Z,59.66
2022-10-27T11:33:54.503Z,59.72
2022-10-27T11:36:25.156Z,59.32
2022-10-27T11:39:01.364Z,59.10
2022-10-27T11:41:38.698Z,59.18
2022-10-27T11:44:29.189Z,58.67
2022-10-27T11:47:13.677Z,58.81
2022-10-27T11:49:53.961Z,59.03
2022-10-27T11:52:39.668Z,59.18
2022-10-27T11:55:08.970Z,59.23
2022-10-27T11:57:44.689Z,59.02
2022-10-27T12:00:26.811Z,59.04
2022-10-27T12:03:21.714Z,58.77
2022-10-27T12:05:57.799Z,58.75
2022-10-27T12:08:30.707Z,58.35
2022-10-27T12:11:13.170Z,58.39
2022-10-27T12:13:55.008Z,58.03
2022-10-27T12:16:48.754Z,57.72
2022-10-27T12:19:36.086Z,57.63
2022-10-27T12:22:15.399Z,57.87
2022-10-27T12:25:00.438Z,57.63
2022-10-27T12:27:35.343Z,57.57
2022-10-27T12:30:13.764Z,57.88
2022-10-27T12:33:00.745Z,57.65
2022-10-27T12:35:33.221Z,57.57
2022-10-27T12:38:17.744Z,57.76
2022-10-27T12:41:09.221Z,57.62
2022-10-27T12:43:49.544Z,58.27
2022-10-27T12:46:47.217Z,58.11
2022-10-27T12:49:32.152Z,58.20
2022-10-27T12:52:16.341Z,58.26
2022-10-27T12:55:07.442Z,58.42
2022-10-27T12:57:55.130Z,59.02
2022-10-27T13:03:20.471Z,58.96
2022-10-27T13:06:10.394Z,59.68
2022-10-27T13:09:04.419Z,59.35
2022-10-27T13:11:34.191Z,59.54
2022-10-27T13:14:22.121Z,59.68
2022-10-27T13:17:23.105Z,59.52
2022-10-27T13:20:08.253Z,58.97
2022-10-27T13:22:47.567Z,58.79
2022-10-27T13:25:17.321Z,58.74
2022-10-27T13:27:56.513Z,59.20
2022-10-27T13:30:30.173Z,59.57
2022-10-27T13:32:57.196Z,60.34
2022-10-27T13:35:26.605Z,60.26
2022-10-27T13:37:56.527Z,60.53
2022-10-27T13:40:41.884Z,60.64
2022-10-27T13:43:23.854Z,60.83
2022-10-27T13:45:59.217Z,60.81
2022-10-27T13:48:25.957Z,60.70
2022-10-27T13:50:56.623Z,60.57
2022-10-27T13:53:28.844Z,60.86
2022-10-27T13:56:30.902Z,60.87
2022-10-27T13:59:05.015Z,60.79
2022-10-27T14:01:34.792Z,60.96
2022-10-27T14:04:24.505Z,60.55
2022-10-27T14:07:01.940Z,61.64
2022-10-27T14:09:36.885Z,61.60
2022-10-27T14:12:17.576Z,61.57
2022-10-27T14:14:44.577Z,61.97
2022-10-27T14:17:20.091Z,61.77
2022-10-27T14:19:59.363Z,62.20
2022-10-27T14:22:36.745Z,62.77
2022-10-27T14:25:26.890Z,62.85
2022-10-27T14:28:22.381Z,62.60
2022-10-27T14:31:09.362Z,62.73
2022-10-27T14:33:36.254Z,62.73
2022-10-27T14:36:15.774Z,62.76
2022-10-27T14:38:49.515Z,63.17
2022-10-27T14:41:21.511Z,63.13
2022-10-27T14:43:55.195Z,62.97
2022-10-27T14:46:29.331Z,63.10
2022-10-27T14:49:04.855Z,63.07
2022-10-27T14:51:34.905Z,63.18
2022-10-27T14:54:02.325Z,63.26
2022-10-27T14:56:31.181Z,63.55
2022-10-27T14:59:00.028Z,63.64
2022-10-27T15:01:39.106Z,63.40
2022-10-27T15:04:15.035Z,63.49
2022-10-27T15:06:45.304Z,63.79
2022-10-27T15:09:51.818Z,63.86
2022-10-27T15:12:30.277Z,63.56
2022-10-27T15:14:58.414Z,64.08
2022-10-27T15:17:45.927Z,64.02
2022-10-27T15:20:19.519Z,64.44
2022-10-27T15:22:51.919Z,64.82
2022-10-27T15:25:19.188Z,64.64
2022-10-27T15:27:48.162Z,64.82
2022-10-27T15:30:20.077Z,64.69
2022-10-27T15:32:52.452Z,64.72
2022-10-27T15:35:33.905Z,64.99
2022-10-27T15:38:04.933Z,64.91
2022-10-27T15:40:41.102Z,65.01
2022-10-27T15:43:23.874Z,65.24
2022-10-27T15:45:51.630Z,65.22
2022-10-27T15:48:27.177Z,65.16
2022-10-27T15:51:10.503Z,65.29
2022-10-27T15:53:51.833Z,65.35
2022-10-27T15:56:35.205Z,65.16
2022-10-27T15:59:23.469Z,65.45
2022-10-27T16:01:56.599Z,65.51
2022-10-27T16:04:45.115Z,65.72
2022-10-27T16:07:22.047Z,65.95
2022-10-27T16:09:53.445Z,65.86
2022-10-27T16:12:30.456Z,65.73
2022-10-27T16:15:03.655Z,65.48
2022-10-27T16:17:42.387Z,65.56
2022-10-27T16:20:38.725Z,65.83
2022-10-27T16:23:11.512Z,66.02
2022-10-27T16:25:39.870Z,65.97
2022-10-27T16:28:39.724Z,66.26
2022-10-27T16:31:17.405Z,66.20
2022-10-27T16:33:47.683Z,66.17
2022-10-27T16:36:16.602Z,66.28
2022-10-27T16:38:46.504Z,65.92
2022-10-27T16:41:18.756Z,66.16
2022-10-27T16:43:45.843Z,65.88
2022-10-27T16:46:13.193Z,66.00
2022-10-27T16:48:42.352Z,65.86
2022-10-27T16:51:19.473Z,65.97
2022-10-27T16:53:51.912Z,66.12
2022-10-27T16:56:21.701Z,66.18
2022-10-27T16:58:54.187Z,66.11
2022-10-27T17:01:23.364Z,66.24
2022-10-27T17:03:52.303Z,66.00
2022-10-27T17:06:25.612Z,65.90
2022-10-27T17:09:07.709Z,66.23
2022-10-27T17:11:39.197Z,66.43
2022-10-27T17:14:07.322Z,66.34
2022-10-27T17:16:34.419Z,65.99
2022-10-27T17:19:01.440Z,66.16
2022-10-27T17:21:28.411Z,66.25
2022-10-27T17:23:55.153Z,66.30
2022-10-27T17:26:26.604Z,66.18
2022-10-27T17:28:55.552Z,66.16
2022-10-27T17:31:35.003Z,66.23
2022-10-27T17:34:04.389Z,66.45
2022-10-27T17:36:36.296Z,66.05
2022-10-27T17:39:05.815Z,65.99
2022-10-27T17:41:35.349Z,66.30
2022-10-27T17:44:04.752Z,65.88
2022-10-27T17:46:31.503Z,66.36
2022-10-27T17:51:38.485Z,66.37
2022-10-27T17:54:05.479Z,66.28
2022-10-27T17:56:41.348Z,66.54
2022-10-27T17:59:14.005Z,66.36
2022-10-27T18:04:46.787Z,66.31
2022-10-27T18:07:18.934Z,66.20
2022-10-27T18:09:45.826Z,66.32
2022-10-27T18:12:12.806Z,66.60
2022-10-27T18:14:39.838Z,66.30
2022-10-27T18:17:07.816Z,66.06
2022-10-27T18:19:37.082Z,66.19
2022-10-27T18:22:03.751Z,66.67
2022-10-27T18:24:31.318Z,66.35
2022-10-27T18:26:58.119Z,66.36
2022-10-27T18:29:26.614Z,66.39
2022-10-27T18:31:53.627Z,66.84
2022-10-27T18:34:20.613Z,66.78
2022-10-27T18:36:47.552Z,66.37
2022-10-27T18:39:19.966Z,66.61
2022-10-27T18:41:49.016Z,66.70
2022-10-27T18:44:21.130Z,66.73
2022-10-27T18:46:48.010Z,66.22
2022-10-27T18:49:25.562Z,66.29
2022-10-27T18:52:00.260Z,66.15
2022-10-27T18:54:29.280Z,66.71
2022-10-27T18:56:56.067Z,66.46
2022-10-27T18:59:22.811Z,66.63
2022-10-27T19:01:50.193Z,66.85
2022-10-27T19:04:16.990Z,66.70
2022-10-27T19:06:43.794Z,66.48
2022-10-27T19:09:11.102Z,66.47
2022-10-27T19:11:40.027Z,66.15
2022-10-27T19:14:09.015Z,66.24
2022-10-27T19:16:37.870Z,66.15
2022-10-27T19:19:09.458Z,66.33
2022-10-27T19:21:36.317Z,66.35
2022-10-27T19:24:05.259Z,66.63
2022-10-27T19:26:33.970Z,66.28
2022-10-27T19:29:03.477Z,66.06
2022-10-27T19:31:33.329Z,66.10
2022-10-27T19:34:00.329Z,66.09
2022-10-27T19:36:30.180Z,65.98
2022-10-27T19:39:02.256Z,66.02
2022-10-27T19:41:33.005Z,65.70
2022-10-27T19:44:00.339Z,66.09
2022-10-27T19:46:31.208Z,66.19
2022-10-27T19:49:02.735Z,65.98
2022-10-27T19:51:34.935Z,66.27
2022-10-27T19:54:11.059Z,66.13
2022-10-27T19:56:47.065Z,66.83
2022-10-27T19:59:21.118Z,66.56
2022-10-27T20:01:51.397Z,66.59
2022-10-27T20:04:19.668Z,66.29
2022-10-27T20:06:46.595Z,65.95
2022-10-27T20:09:15.156Z,66.48
2022-10-27T20:11:45.027Z,66.51
2022-10-27T20:14:13.128Z,66.46
2022-10-27T20:16:43.418Z,66.82
2022-10-27T20:19:15.155Z,66.30
2022-10-27T20:21:44.409Z,66.49
2022-10-27T20:24:14.630Z,66.48
2022-10-27T20:26:48.749Z,66.30
2022-10-27T20:29:16.629Z,66.79
2022-10-27T20:31:46.221Z,66.65
2022-10-27T20:34:13.636Z,66.57
2022-10-27T20:36:43.138Z,66.49
2022-10-27T20:39:11.184Z,66.64
2022-10-27T20:41:40.274Z,66.67
2022-10-27T20:44:07.468Z,66.30
2022-10-27T20:46:36.542Z,66.11
2022-10-27T20:49:05.606Z,66.38
2022-10-27T20:51:33.099Z,66.30
2022-10-27T20:54:13.290Z,66.23
2022-10-27T20:56:42.579Z,66.52
2022-10-27T20:59:09.370Z,66.57
2022-10-27T21:01:37.953Z,66.49
2022-10-27T21:04:04.786Z,66.36
2022-10-27T21:06:38.035Z,66.37
2022-10-27T21:09:08.800Z,66.65
2022-10-27T21:11:35.626Z,66.42
2022-10-27T21:14:06.081Z,66.28
2022-10-27T21:16:33.436Z,66.56
2022-10-27T21:19:02.257Z,66.51
2022-10-27T21:21:33.302Z,66.29
2022-10-27T21:24:02.706Z,66.34
2022-10-27T21:26:33.130Z,66.08
2022-10-27T21:29:00.191Z,66.10
2022-10-27T21:31:29.042Z,66.20
2022-10-27T21:33:56.765Z,66.55
2022-10-27T21:36:28.351Z,66.41
2022-10-27T21:38:57.550Z,66.30
2022-10-27T21:41:26.584Z,66.43
2022-10-27T21:43:56.567Z,66.05
2022-10-27T21:46:25.893Z,66.32
2022-10-27T21:48:58.986Z,66.80
2022-10-27T21:51:26.367Z,66.40
2022-10-27T21:54:01.352Z,66.39
2022-10-27T21:56:35.259Z,66.37
2022-10-27T21:59:06.502Z,66.61
2022-10-27T22:01:35.906Z,66.52
2022-10-27T22:04:05.737Z,66.31
2022-10-27T22:06:33.659Z,66.80
2022-10-27T22:09:00.989Z,66.67
2022-10-27T22:11:34.173Z,66.65
2022-10-27T22:14:03.997Z,66.77
2022-10-27T22:16:37.039Z,66.93
2022-10-27T22:19:05.249Z,66.74
2022-10-27T22:21:37.109Z,66.79
2022-10-27T22:24:04.403Z,66.74
2022-10-27T22:26:31.407Z,66.41
2022-10-27T22:29:03.528Z,66.26
2022-10-27T22:31:31.518Z,66.71
2022-10-27T22:34:02.309Z,66.65
2022-10-27T22:36:29.698Z,66.54
2022-10-27T22:39:00.437Z,66.75
2022-10-27T22:41:27.840Z,66.54
2022-10-27T22:43:56.393Z,66.80
2022-10-27T22:46:25.222Z,66.61
2022-10-27T22:48:52.120Z,66.49
2022-10-27T22:51:27.645Z,66.69
2022-10-27T22:54:00.192Z,66.81
2022-10-27T22:56:31.739Z,66.69
2022-10-27T22:59:00.216Z,66.76
2022-10-27T23:01:32.090Z,66.70
2022-10-27T23:04:00.774Z,66.85
2022-10-27T23:06:33.310Z,66.99
2022-10-27T23:09:20.530Z,67.20
2022-10-27T23:11:47.262Z,66.89
2022-10-27T23:14:15.611Z,67.21
2022-10-27T23:16:43.034Z,67.30
2022-10-27T23:19:09.843Z,67.21
2022-10-27T23:21:36.671Z,67.00
2022-10-27T23:24:04.079Z,66.93
2022-10-27T23:26:35.480Z,67.00
2022-10-27T23:29:04.997Z,67.39
2022-10-27T23:31:34.809Z,67.36
2022-10-27T23:34:03.105Z,67.46
2022-10-27T23:36:30.905Z,67.20
2022-10-27T23:39:00.448Z,67.10
2022-10-27T23:41:27.349Z,67.40
2022-10-27T23:43:56.075Z,67.15
2022-10-27T23:46:30.023Z,67.38
2022-10-27T23:48:57.701Z,67.08
2022-10-27T23:51:26.665Z,67.18
2022-10-27T23:53:55.785Z,67.28
2022-10-27T23:56:22.940Z,67.04
2022-10-27T23:58:50.225Z,67.40
